sensor_id;sensor_type;location;lat;lon;timestamp;pressure;altitude;pressure_sealevel;temperature;humidity
21109;BME280;10712;52.944;9.098;2023-12-20T00:01:33;101011.94;;;14.72;74.85
21109;BME280;10712;52.944;9.098;2023-12-20T00:03:59;101007.22;;;14.63;74.91
21109;BME280;10712;52.944;9.098;2023-12-20T00:06:25;101011.38;;;14.67;74.88
21109;BME280;10712;52.944;9.098;2023-12-20T00:08:51;101011.81;;;14.74;74.62
21109;BME280;10712;52.944;9.098;2023-12-20T00:11:16;101011.28;;;14.69;74.69
21109;BME280;10712;52.944;9.098;2023-12-20T00:13:42;101013.53;;;14.62;74.81
21109;BME280;10712;52.944;9.098;2023-12-20T00:16:09;101013.97;;;14.56;74.70
21109;BME280;10712;52.944;9.098;2023-12-20T00:18:35;101004.47;;;14.52;74.74
21109;BME280;10712;52.944;9.098;2023-12-20T00:21:00;101002.94;;;14.48;74.70
21109;BME280;10712;52.944;9.098;2023-12-20T00:23:26;100997.38;;;14.51;74.54
21109;BME280;10712;52.944;9.098;2023-12-20T00:25:52;101006.16;;;14.53;74.47
21109;BME280;10712;52.944;9.098;2023-12-20T00:28:18;100995.66;;;14.50;74.50
21109;BME280;10712;52.944;9.098;2023-12-20T00:30:43;100992.88;;;14.51;74.45
21109;BME280;10712;52.944;9.098;2023-12-20T00:33:09;101001.44;;;14.44;74.47
21109;BME280;10712;52.944;9.098;2023-12-20T00:35:35;101000.16;;;14.49;74.20
21109;BME280;10712;52.944;9.098;2023-12-20T00:38:01;101006.28;;;14.51;74.07
21109;BME280;10712;52.944;9.098;2023-12-20T00:40:26;100997.25;;;14.40;74.31
21109;BME280;10712;52.944;9.098;2023-12-20T00:42:52;101000.34;;;14.34;74.39
21109;BME280;10712;52.944;9.098;2023-12-20T00:45:18;101010.09;;;14.35;74.40
21109;BME280;10712;52.944;9.098;2023-12-20T00:47:45;101006.16;;;14.40;73.89
21109;BME280;10712;52.944;9.098;2023-12-20T00:50:11;101002.50;;;14.41;73.89
21109;BME280;10712;52.944;9.098;2023-12-20T00:52:37;101007.25;;;14.38;74.18
21109;BME280;10712;52.944;9.098;2023-12-20T00:55:04;100996.16;;;14.30;74.12
21109;BME280;10712;52.944;9.098;2023-12-20T00:57:29;100998.41;;;14.23;74.21
21109;BME280;10712;52.944;9.098;2023-12-20T00:59:56;100992.91;;;14.25;74.23
21109;BME280;10712;52.944;9.098;2023-12-20T01:02:22;100994.78;;;14.24;74.18
21109;BME280;10712;52.944;9.098;2023-12-20T01:04:48;100988.56;;;14.24;73.99
21109;BME280;10712;52.944;9.098;2023-12-20T01:07:14;100987.25;;;14.29;73.72
21109;BME280;10712;52.944;9.098;2023-12-20T01:09:39;100994.53;;;14.14;73.94
21109;BME280;10712;52.944;9.098;2023-12-20T01:12:05;100983.41;;;14.08;74.04
21109;BME280;10712;52.944;9.098;2023-12-20T01:14:31;100983.41;;;14.08;74.02
21109;BME280;10712;52.944;9.098;2023-12-20T01:16:57;100978.47;;;14.14;73.92
21109;BME280;10712;52.944;9.098;2023-12-20T01:19:24;100983.91;;;14.13;73.97
21109;BME280;10712;52.944;9.098;2023-12-20T01:21:50;100984.88;;;14.12;73.86
21109;BME280;10712;52.944;9.098;2023-12-20T01:24:16;100992.47;;;14.05;73.94
21109;BME280;10712;52.944;9.098;2023-12-20T01:26:41;100993.25;;;14.07;73.97
21109;BME280;10712;52.944;9.098;2023-12-20T01:29:07;100984.03;;;14.11;73.85
21109;BME280;10712;52.944;9.098;2023-12-20T01:31:33;100981.66;;;14.07;73.81
21109;BME280;10712;52.944;9.098;2023-12-20T01:33:59;100978.91;;;14.08;73.70
21109;BME280;10712;52.944;9.098;2023-12-20T01:36:25;100975.25;;;14.09;73.64
21109;BME280;10712;52.944;9.098;2023-12-20T01:38:51;100973.53;;;14.08;73.80
21109;BME280;10712;52.944;9.098;2023-12-20T01:41:16;100969.22;;;14.18;73.25
21109;BME280;10712;52.944;9.098;2023-12-20T01:43:42;100960.44;;;14.04;73.67
21109;BME280;10712;52.944;9.098;2023-12-20T01:46:08;100961.19;;;14.06;73.53
21109;BME280;10712;52.944;9.098;2023-12-20T01:48:35;100955.22;;;14.02;73.48
21109;BME280;10712;52.944;9.098;2023-12-20T01:51:02;100964.09;;;14.03;73.47
21109;BME280;10712;52.944;9.098;2023-12-20T01:53:29;100965.16;;;14.00;73.54
21109;BME280;10712;52.944;9.098;2023-12-20T01:55:58;100959.81;;;14.00;73.53
21109;BME280;10712;52.944;9.098;2023-12-20T01:58:25;100957.22;;;13.99;73.74
21109;BME280;10712;52.944;9.098;2023-12-20T02:00:51;100957.47;;;14.08;73.60
21109;BME280;10712;52.944;9.098;2023-12-20T02:03:18;100957.22;;;13.99;73.83
21109;BME280;10712;52.944;9.098;2023-12-20T02:05:45;100956.59;;;13.95;73.88
21109;BME280;10712;52.944;9.098;2023-12-20T02:08:11;100947.38;;;13.99;73.73
21109;BME280;10712;52.944;9.098;2023-12-20T02:10:37;100947.59;;;13.96;73.84
21109;BME280;10712;52.944;9.098;2023-12-20T02:13:04;100941.69;;;13.91;73.89
21109;BME280;10712;52.944;9.098;2023-12-20T02:15:30;100930.25;;;14.02;73.71
21109;BME280;10712;52.944;9.098;2023-12-20T02:17:56;100933.44;;;13.94;73.71
21109;BME280;10712;52.944;9.098;2023-12-20T02:20:22;100932.69;;;13.92;73.65
21109;BME280;10712;52.944;9.098;2023-12-20T02:22:48;100926.19;;;13.96;73.46
21109;BME280;10712;52.944;9.098;2023-12-20T02:25:13;100934.94;;;13.98;73.42
21109;BME280;10712;52.944;9.098;2023-12-20T02:27:40;100934.41;;;14.06;73.14
21109;BME280;10712;52.944;9.098;2023-12-20T02:30:06;100939.13;;;13.90;73.31
21109;BME280;10712;52.944;9.098;2023-12-20T02:32:32;100944.78;;;13.85;73.25
21109;BME280;10712;52.944;9.098;2023-12-20T02:34:58;100939.22;;;13.88;73.32
21109;BME280;10712;52.944;9.098;2023-12-20T02:37:24;100940.53;;;13.83;73.31
21109;BME280;10712;52.944;9.098;2023-12-20T02:39:50;100935.16;;;13.83;73.45
21109;BME280;10712;52.944;9.098;2023-12-20T02:42:16;100935.38;;;13.92;73.00
21109;BME280;10712;52.944;9.098;2023-12-20T02:44:41;100939.84;;;13.79;73.43
21109;BME280;10712;52.944;9.098;2023-12-20T02:47:07;100932.59;;;13.81;73.34
21109;BME280;10712;52.944;9.098;2023-12-20T02:49:33;100922.94;;;13.78;73.30
21109;BME280;10712;52.944;9.098;2023-12-20T02:51:58;100921.78;;;13.83;73.26
21109;BME280;10712;52.944;9.098;2023-12-20T02:54:24;100919.91;;;13.83;73.15
21109;BME280;10712;52.944;9.098;2023-12-20T02:56:50;100911.78;;;13.85;73.31
21109;BME280;10712;52.944;9.098;2023-12-20T02:59:16;100905.16;;;13.90;72.94
21109;BME280;10712;52.944;9.098;2023-12-20T03:01:44;100901.19;;;13.83;73.19
21109;BME280;10712;52.944;9.098;2023-12-20T03:04:10;100899.25;;;13.85;73.08
21109;BME280;10712;52.944;9.098;2023-12-20T03:06:36;100900.53;;;13.92;72.94
21109;BME280;10712;52.944;9.098;2023-12-20T03:09:02;100891.66;;;14.04;72.82
21109;BME280;10712;52.944;9.098;2023-12-20T03:11:28;100902.06;;;13.96;72.97
21109;BME280;10712;52.944;9.098;2023-12-20T03:13:55;100890.06;;;13.89;73.25
21109;BME280;10712;52.944;9.098;2023-12-20T03:16:21;100883.94;;;14.00;73.10
21109;BME280;10712;52.944;9.098;2023-12-20T03:18:47;100889.06;;;13.90;73.45
21109;BME280;10712;52.944;9.098;2023-12-20T03:21:12;100879.13;;;13.92;73.45
21109;BME280;10712;52.944;9.098;2023-12-20T03:23:38;100872.03;;;14.04;73.25
21109;BME280;10712;52.944;9.098;2023-12-20T03:26:07;100886.97;;;13.95;73.41
21109;BME280;10712;52.944;9.098;2023-12-20T03:28:33;100876.44;;;13.92;73.52
21109;BME280;10712;52.944;9.098;2023-12-20T03:31:00;100880.50;;;13.98;73.49
21109;BME280;10712;52.944;9.098;2023-12-20T03:33:26;100876.88;;;13.99;73.41
21109;BME280;10712;52.944;9.098;2023-12-20T03:35:51;100880.31;;;13.88;73.85
21109;BME280;10712;52.944;9.098;2023-12-20T03:38:17;100882.03;;;13.89;73.88
21109;BME280;10712;52.944;9.098;2023-12-20T03:40:43;100885.44;;;13.91;73.78
21109;BME280;10712;52.944;9.098;2023-12-20T03:43:09;100877.19;;;13.94;73.79
21109;BME280;10712;52.944;9.098;2023-12-20T03:45:35;100885.66;;;14.01;73.63
21109;BME280;10712;52.944;9.098;2023-12-20T03:48:01;100876.13;;;14.09;73.62
21109;BME280;10712;52.944;9.098;2023-12-20T03:50:27;100868.41;;;13.92;73.96
21109;BME280;10712;52.944;9.098;2023-12-20T03:52:53;100880.22;;;13.90;74.09
21109;BME280;10712;52.944;9.098;2023-12-20T03:55:19;100864.00;;;13.91;74.07
21109;BME280;10712;52.944;9.098;2023-12-20T03:57:44;100858.22;;;13.97;74.02
21109;BME280;10712;52.944;9.098;2023-12-20T04:00:11;100843.97;;;14.09;73.73
21109;BME280;10712;52.944;9.098;2023-12-20T04:02:41;100848.38;;;14.10;73.54
21109;BME280;10712;52.944;9.098;2023-12-20T04:05:08;100843.03;;;14.10;73.61
21109;BME280;10712;52.944;9.098;2023-12-20T04:07:35;100847.94;;;14.16;73.64
21109;BME280;10712;52.944;9.098;2023-12-20T04:10:03;100840.63;;;14.18;73.49
21109;BME280;10712;52.944;9.098;2023-12-20T04:12:32;100848.13;;;14.26;73.27
21109;BME280;10712;52.944;9.098;2023-12-20T04:14:59;100848.97;;;14.27;73.03
21109;BME280;10712;52.944;9.098;2023-12-20T04:17:24;100845.97;;;14.18;73.29
21109;BME280;10712;52.944;9.098;2023-12-20T04:19:51;100834.81;;;14.25;73.03
21109;BME280;10712;52.944;9.098;2023-12-20T04:22:18;100845.34;;;14.28;73.08
21109;BME280;10712;52.944;9.098;2023-12-20T04:24:44;100847.59;;;14.21;73.17
21109;BME280;10712;52.944;9.098;2023-12-20T04:27:11;100845.53;;;14.25;73.15
21109;BME280;10712;52.944;9.098;2023-12-20T04:29:36;100838.31;;;14.01;73.69
21109;BME280;10712;52.944;9.098;2023-12-20T04:32:02;100847.69;;;14.19;73.21
21109;BME280;10712;52.944;9.098;2023-12-20T04:34:28;100854.03;;;14.18;73.38
21109;BME280;10712;52.944;9.098;2023-12-20T04:36:54;100844.03;;;14.33;72.93
21109;BME280;10712;52.944;9.098;2023-12-20T04:39:20;100848.13;;;14.39;72.62
21109;BME280;10712;52.944;9.098;2023-12-20T04:41:46;100847.81;;;14.31;72.99
21109;BME280;10712;52.944;9.098;2023-12-20T04:44:13;100836.22;;;14.43;72.44
21109;BME280;10712;52.944;9.098;2023-12-20T04:46:39;100835.88;;;14.35;72.68
21109;BME280;10712;52.944;9.098;2023-12-20T04:49:05;100829.91;;;14.44;72.38
21109;BME280;10712;52.944;9.098;2023-12-20T04:51:35;100834.50;;;14.42;72.40
21109;BME280;10712;52.944;9.098;2023-12-20T04:54:01;100836.97;;;14.45;72.52
21109;BME280;10712;52.944;9.098;2023-12-20T04:56:27;100833.97;;;14.37;72.73
21109;BME280;10712;52.944;9.098;2023-12-20T04:58:53;100835.47;;;14.41;72.51
21109;BME280;10712;52.944;9.098;2023-12-20T05:01:19;100825.38;;;14.32;72.70
21109;BME280;10712;52.944;9.098;2023-12-20T05:03:45;100827.94;;;14.46;72.44
21109;BME280;10712;52.944;9.098;2023-12-20T05:06:10;100826.66;;;14.39;72.63
21109;BME280;10712;52.944;9.098;2023-12-20T05:08:36;100819.81;;;14.35;72.77
21109;BME280;10712;52.944;9.098;2023-12-20T05:11:03;100824.41;;;14.33;72.78
21109;BME280;10712;52.944;9.098;2023-12-20T05:13:29;100828.38;;;14.40;72.66
21109;BME280;10712;52.944;9.098;2023-12-20T05:15:54;100814.25;;;14.38;72.58
21109;BME280;10712;52.944;9.098;2023-12-20T05:18:21;100815.94;;;14.39;72.67
21109;BME280;10712;52.944;9.098;2023-12-20T05:20:50;100801.94;;;14.59;72.24
21109;BME280;10712;52.944;9.098;2023-12-20T05:23:17;100799.59;;;14.54;72.13
21109;BME280;10712;52.944;9.098;2023-12-20T05:25:43;100799.09;;;14.49;72.22
21109;BME280;10712;52.944;9.098;2023-12-20T05:28:08;100804.88;;;14.56;71.98
21109;BME280;10712;52.944;9.098;2023-12-20T05:30:34;100809.72;;;14.51;72.17
21109;BME280;10712;52.944;9.098;2023-12-20T05:33:00;100811.44;;;14.39;72.28
21109;BME280;10712;52.944;9.098;2023-12-20T05:35:26;100810.16;;;14.45;72.15
21109;BME280;10712;52.944;9.098;2023-12-20T05:37:52;100813.56;;;14.47;72.02
21109;BME280;10712;52.944;9.098;2023-12-20T05:40:18;100810.38;;;14.42;72.12
21109;BME280;10712;52.944;9.098;2023-12-20T05:42:43;100813.56;;;14.47;72.07
21109;BME280;10712;52.944;9.098;2023-12-20T05:45:09;100814.13;;;14.52;71.98
21109;BME280;10712;52.944;9.098;2023-12-20T05:47:36;100805.13;;;14.40;72.10
21109;BME280;10712;52.944;9.098;2023-12-20T05:50:02;100805.94;;;14.53;71.84
21109;BME280;10712;52.944;9.098;2023-12-20T05:52:28;100805.81;;;14.55;71.84
21109;BME280;10712;52.944;9.098;2023-12-20T05:54:53;100798.75;;;14.54;71.89
21109;BME280;10712;52.944;9.098;2023-12-20T05:57:19;100801.94;;;14.59;71.74
21109;BME280;10712;52.944;9.098;2023-12-20T05:59:45;100796.22;;;14.40;72.08
21109;BME280;10712;52.944;9.098;2023-12-20T06:02:11;100797.50;;;14.47;71.90
21109;BME280;10712;52.944;9.098;2023-12-20T06:04:37;100801.31;;;14.55;71.79
21109;BME280;10712;52.944;9.098;2023-12-20T06:07:03;100807.53;;;14.56;71.54
21109;BME280;10712;52.944;9.098;2023-12-20T06:09:29;100806.19;;;14.50;71.62
21109;BME280;10712;52.944;9.098;2023-12-20T06:11:55;100807.03;;;14.51;71.68
21109;BME280;10712;52.944;9.098;2023-12-20T06:14:21;100796.22;;;14.40;72.05
21109;BME280;10712;52.944;9.098;2023-12-20T06:16:47;100801.28;;;14.44;71.94
21109;BME280;10712;52.944;9.098;2023-12-20T06:19:13;100781.28;;;14.48;72.03
21109;BME280;10712;52.944;9.098;2023-12-20T06:21:39;100781.50;;;14.45;71.81
21109;BME280;10712;52.944;9.098;2023-12-20T06:24:05;100780.78;;;14.43;72.12
21109;BME280;10712;52.944;9.098;2023-12-20T06:26:31;100769.97;;;14.45;71.98
21109;BME280;10712;52.944;9.098;2023-12-20T06:28:56;100766.56;;;14.54;71.73
21109;BME280;10712;52.944;9.098;2023-12-20T06:31:22;100771.94;;;14.54;71.96
21109;BME280;10712;52.944;9.098;2023-12-20T06:33:48;100775.13;;;14.59;71.69
21109;BME280;10712;52.944;9.098;2023-12-20T06:36:23;100773.59;;;14.68;71.40
21109;BME280;10712;52.944;9.098;2023-12-20T06:38:50;100783.25;;;14.70;71.48
21109;BME280;10712;52.944;9.098;2023-12-20T06:41:16;100772.97;;;14.64;71.66
21109;BME280;10712;52.944;9.098;2023-12-20T06:43:42;100772.53;;;14.70;71.49
21109;BME280;10712;52.944;9.098;2023-12-20T06:46:08;100773.28;;;14.72;71.38
21109;BME280;10712;52.944;9.098;2023-12-20T06:48:34;100753.31;;;14.87;70.80
21109;BME280;10712;52.944;9.098;2023-12-20T06:51:01;100753.78;;;14.81;70.82
21109;BME280;10712;52.944;9.098;2023-12-20T06:53:30;100751.81;;;14.48;71.14
21109;BME280;10712;52.944;9.098;2023-12-20T06:55:56;100756.97;;;14.39;71.51
21109;BME280;10712;52.944;9.098;2023-12-20T06:58:23;100746.16;;;14.64;70.84
21109;BME280;10712;52.944;9.098;2023-12-20T07:00:49;100753.25;;;14.65;70.77
21109;BME280;10712;52.944;9.098;2023-12-20T07:03:15;100748.88;;;14.75;70.60
21109;BME280;10712;52.944;9.098;2023-12-20T07:05:42;100736.22;;;14.77;70.73
21109;BME280;10712;52.944;9.098;2023-12-20T07:08:07;100716.97;;;14.83;70.99
21109;BME280;10712;52.944;9.098;2023-12-20T07:10:33;100733.66;;;14.76;71.25
21109;BME280;10712;52.944;9.098;2023-12-20T07:12:59;100734.88;;;14.72;71.33
21109;BME280;10712;52.944;9.098;2023-12-20T07:15:25;100734.97;;;14.70;71.33
21109;BME280;10712;52.944;9.098;2023-12-20T07:17:52;100736.81;;;14.70;71.44
21109;BME280;10712;52.944;9.098;2023-12-20T07:20:18;100738.41;;;14.72;71.35
21109;BME280;10712;52.944;9.098;2023-12-20T07:22:44;100744.22;;;14.66;71.71
21109;BME280;10712;52.944;9.098;2023-12-20T07:25:10;100735.19;;;14.67;71.74
21109;BME280;10712;52.944;9.098;2023-12-20T07:27:36;100741.66;;;14.65;71.93
21109;BME280;10712;52.944;9.098;2023-12-20T07:30:02;100725.97;;;14.71;71.92
21109;BME280;10712;52.944;9.098;2023-12-20T07:32:28;100720.81;;;14.68;72.01
21109;BME280;10712;52.944;9.098;2023-12-20T07:34:54;100728.94;;;14.79;71.79
21109;BME280;10712;52.944;9.098;2023-12-20T07:37:20;100724.06;;;14.61;72.32
21109;BME280;10712;52.944;9.098;2023-12-20T07:39:46;100729.84;;;14.67;72.23
21109;BME280;10712;52.944;9.098;2023-12-20T07:42:12;100727.78;;;14.71;72.14
21109;BME280;10712;52.944;9.098;2023-12-20T07:44:38;100734.88;;;14.72;72.02
21109;BME280;10712;52.944;9.098;2023-12-20T07:47:04;100728.19;;;14.88;71.58
21109;BME280;10712;52.944;9.098;2023-12-20T07:49:33;100729.53;;;14.83;71.75
21109;BME280;10712;52.944;9.098;2023-12-20T07:51:59;100727.00;;;14.92;71.55
21109;BME280;10712;52.944;9.098;2023-12-20T07:54:24;100718.97;;;14.92;71.51
21109;BME280;10712;52.944;9.098;2023-12-20T07:56:50;100714.19;;;14.85;71.70
21109;BME280;10712;52.944;9.098;2023-12-20T07:59:16;100711.88;;;14.91;71.62
21109;BME280;10712;52.944;9.098;2023-12-20T08:01:42;100719.94;;;14.91;71.55
21109;BME280;10712;52.944;9.098;2023-12-20T08:04:08;100705.78;;;14.89;71.81
21109;BME280;10712;52.944;9.098;2023-12-20T08:06:34;100714.59;;;15.03;71.45
21109;BME280;10712;52.944;9.098;2023-12-20T08:09:00;100721.38;;;14.84;71.95
21109;BME280;10712;52.944;9.098;2023-12-20T08:11:25;100717.25;;;14.91;71.95
21109;BME280;10712;52.944;9.098;2023-12-20T08:13:51;100710.84;;;14.70;72.87
21109;BME280;10712;52.944;9.098;2023-12-20T08:16:17;100706.91;;;14.98;72.31
21109;BME280;10712;52.944;9.098;2023-12-20T08:18:43;100703.94;;;14.90;72.30
21109;BME280;10712;52.944;9.098;2023-12-20T08:21:09;100707.13;;;14.95;72.26
21109;BME280;10712;52.944;9.098;2023-12-20T08:23:37;100698.38;;;14.93;72.26
21109;BME280;10712;52.944;9.098;2023-12-20T08:26:08;100688.63;;;15.03;72.17
21109;BME280;10712;52.944;9.098;2023-12-20T08:28:36;100687.06;;;15.12;71.72
21109;BME280;10712;52.944;9.098;2023-12-20T08:31:02;100687.78;;;15.14;71.83
21109;BME280;10712;52.944;9.098;2023-12-20T08:33:28;100685.34;;;15.11;71.70
21109;BME280;10712;52.944;9.098;2023-12-20T08:35:54;100689.63;;;15.13;71.77
21109;BME280;10712;52.944;9.098;2023-12-20T08:38:19;100690.22;;;15.17;71.63
21109;BME280;10712;52.944;9.098;2023-12-20T08:40:45;100690.59;;;15.23;71.46
21109;BME280;10712;52.944;9.098;2023-12-20T08:43:11;100676.31;;;15.12;71.66
21109;BME280;10712;52.944;9.098;2023-12-20T08:45:38;100678.28;;;15.21;71.07
21109;BME280;10712;52.944;9.098;2023-12-20T08:48:04;100674.75;;;15.20;71.03
21109;BME280;10712;52.944;9.098;2023-12-20T08:50:31;100666.22;;;15.26;70.90
21109;BME280;10712;52.944;9.098;2023-12-20T08:52:56;100663.38;;;15.17;71.25
21109;BME280;10712;52.944;9.098;2023-12-20T08:55:22;100658.16;;;15.26;71.15
21109;BME280;10712;52.944;9.098;2023-12-20T08:57:48;100643.25;;;15.22;71.18
21109;BME280;10712;52.944;9.098;2023-12-20T09:00:15;100642.66;;;15.30;70.87
21109;BME280;10712;52.944;9.098;2023-12-20T09:02:41;100648.28;;;15.27;70.93
21109;BME280;10712;52.944;9.098;2023-12-20T09:05:07;100642.44;;;15.33;70.98
21109;BME280;10712;52.944;9.098;2023-12-20T09:07:33;100634.63;;;15.19;71.55
21109;BME280;10712;52.944;9.098;2023-12-20T09:09:59;100637.31;;;15.41;71.01
21109;BME280;10712;52.944;9.098;2023-12-20T09:12:25;100634.63;;;15.41;71.19
21109;BME280;10712;52.944;9.098;2023-12-20T09:14:51;100632.19;;;15.27;71.43
21109;BME280;10712;52.944;9.098;2023-12-20T09:17:18;100641.94;;;15.39;71.44
21109;BME280;10712;52.944;9.098;2023-12-20T09:19:45;100632.44;;;15.35;71.32
21109;BME280;10712;52.944;9.098;2023-12-20T09:22:11;100623.13;;;15.39;71.51
21109;BME280;10712;52.944;9.098;2023-12-20T09:24:37;100630.72;;;15.34;71.80
21109;BME280;10712;52.944;9.098;2023-12-20T09:27:05;100626.56;;;15.30;72.34
21109;BME280;10712;52.944;9.098;2023-12-20T09:29:31;100624.84;;;15.29;72.43
21109;BME280;10712;52.944;9.098;2023-12-20T09:31:57;100631.56;;;15.46;72.03
21109;BME280;10712;52.944;9.098;2023-12-20T09:34:23;100625.09;;;15.26;72.51
21109;BME280;10712;52.944;9.098;2023-12-20T09:36:49;100619.47;;;15.29;72.70
21109;BME280;10712;52.944;9.098;2023-12-20T09:39:20;100619.72;;;15.26;72.94
21109;BME280;10712;52.944;9.098;2023-12-20T09:42:00;100628.25;;;15.31;72.79
21109;BME280;10712;52.944;9.098;2023-12-20T09:44:26;100638.78;;;15.34;72.93
21109;BME280;10712;52.944;9.098;2023-12-20T09:46:54;100629.75;;;15.35;72.86
21109;BME280;10712;52.944;9.098;2023-12-20T09:49:21;100632.41;;;15.24;72.98
21109;BME280;10712;52.944;9.098;2023-12-20T09:51:50;100638.53;;;15.26;73.38
21109;BME280;10712;52.944;9.098;2023-12-20T09:54:18;100640.94;;;15.29;73.22
21109;BME280;10712;52.944;9.098;2023-12-20T09:56:44;100635.94;;;15.35;73.06
21109;BME280;10712;52.944;9.098;2023-12-20T09:59:10;100633.91;;;15.28;73.24
21109;BME280;10712;52.944;9.098;2023-12-20T10:01:39;100622.28;;;15.38;72.88
21109;BME280;10712;52.944;9.098;2023-12-20T10:04:08;100622.66;;;15.34;73.00
21109;BME280;10712;52.944;9.098;2023-12-20T10:06:43;100623.75;;;15.31;73.13
21109;BME280;10712;52.944;9.098;2023-12-20T10:09:12;100633.91;;;15.28;73.29
21109;BME280;10712;52.944;9.098;2023-12-20T10:11:39;100632.19;;;15.27;73.41
21109;BME280;10712;52.944;9.098;2023-12-20T10:14:06;100663.16;;;15.31;73.46
21109;BME280;10712;52.944;9.098;2023-12-20T10:16:33;100691.44;;;15.24;73.43
21109;BME280;10712;52.944;9.098;2023-12-20T10:19:00;100722.19;;;15.20;73.46
21109;BME280;10712;52.944;9.098;2023-12-20T10:21:30;100718.72;;;14.95;73.17
21109;BME280;10712;52.944;9.098;2023-12-20T10:23:57;100707.91;;;14.73;73.00
21109;BME280;10712;52.944;9.098;2023-12-20T10:26:25;100714.69;;;14.55;72.37
21109;BME280;10712;52.944;9.098;2023-12-20T10:28:56;100713.28;;;14.26;71.88
21109;BME280;10712;52.944;9.098;2023-12-20T10:31:33;100702.91;;;14.21;71.67
21109;BME280;10712;52.944;9.098;2023-12-20T10:34:02;100692.53;;;14.16;71.95
21109;BME280;10712;52.944;9.098;2023-12-20T10:36:31;100671.38;;;14.01;72.13
21109;BME280;10712;52.944;9.098;2023-12-20T10:38:59;100685.78;;;13.87;72.32
21109;BME280;10712;52.944;9.098;2023-12-20T10:41:30;100676.78;;;13.88;72.28
21109;BME280;10712;52.944;9.098;2023-12-20T10:44:02;100685.53;;;13.90;72.08
21109;BME280;10712;52.944;9.098;2023-12-20T10:46:29;100679.59;;;13.74;72.46
21109;BME280;10712;52.944;9.098;2023-12-20T10:48:56;100687.69;;;13.85;72.18
21109;BME280;10712;52.944;9.098;2023-12-20T10:51:24;100690.38;;;13.85;72.20
21109;BME280;10712;52.944;9.098;2023-12-20T10:53:56;100682.78;;;13.79;72.52
21109;BME280;10712;52.944;9.098;2023-12-20T10:56:22;100671.28;;;13.66;72.63
21109;BME280;10712;52.944;9.098;2023-12-20T10:58:50;100675.97;;;13.75;72.44
21109;BME280;10712;52.944;9.098;2023-12-20T11:01:17;100674.47;;;13.71;72.77
21109;BME280;10712;52.944;9.098;2023-12-20T11:03:53;100673.81;;;13.80;72.60
21109;BME280;10712;52.944;9.098;2023-12-20T11:06:47;100679.56;;;13.87;72.60
21109;BME280;10712;52.944;9.098;2023-12-20T11:09:24;100671.63;;;13.85;72.73
21109;BME280;10712;52.944;9.098;2023-12-20T11:14:54;100669.72;;;13.87;72.51
21109;BME280;10712;52.944;9.098;2023-12-20T11:17:28;100669.88;;;13.97;72.60
21109;BME280;10712;52.944;9.098;2023-12-20T11:22:25;100661.28;;;14.04;72.38
21109;BME280;10712;52.944;9.098;2023-12-20T11:24:53;100660.00;;;13.97;72.46
21109;BME280;10712;52.944;9.098;2023-12-20T11:27:20;100650.72;;;13.90;72.14
21109;BME280;10712;52.944;9.098;2023-12-20T11:29:54;100664.75;;;13.94;72.32
21109;BME280;10712;52.944;9.098;2023-12-20T11:34:59;100664.72;;;14.06;72.04
21109;BME280;10712;52.944;9.098;2023-12-20T11:37:51;100677.09;;;13.96;72.06
21109;BME280;10712;52.944;9.098;2023-12-20T11:40:18;100667.53;;;13.92;71.69
21109;BME280;10712;52.944;9.098;2023-12-20T11:42:48;100652.22;;;14.18;71.69
21109;BME280;10712;52.944;9.098;2023-12-20T11:45:17;100663.19;;;14.15;71.33
21109;BME280;10712;52.944;9.098;2023-12-20T11:47:50;100656.03;;;14.27;70.65
21109;BME280;10712;52.944;9.098;2023-12-20T11:50:17;100657.53;;;14.31;70.78
21109;BME280;10712;52.944;9.098;2023-12-20T11:52:43;100646.56;;;14.34;70.87
21109;BME280;10712;52.944;9.098;2023-12-20T11:55:09;100642.91;;;14.35;70.87
21109;BME280;10712;52.944;9.098;2023-12-20T11:57:36;100654.72;;;14.56;70.29
21109;BME280;10712;52.944;9.098;2023-12-20T12:00:04;100648.88;;;14.51;70.38
21109;BME280;10712;52.944;9.098;2023-12-20T12:02:37;100649.88;;;14.61;70.13
21109;BME280;10712;52.944;9.098;2023-12-20T12:05:04;100652.06;;;14.56;70.52
21109;BME280;10712;52.944;9.098;2023-12-20T12:07:32;100655.00;;;14.64;70.33
21109;BME280;10712;52.944;9.098;2023-12-20T12:09:58;100662.09;;;14.65;70.50
21109;BME280;10712;52.944;9.098;2023-12-20T12:12:24;100659.34;;;14.54;70.43
21109;BME280;10712;52.944;9.098;2023-12-20T12:14:54;100662.09;;;14.76;70.21
21109;BME280;10712;52.944;9.098;2023-12-20T12:17:20;100665.00;;;14.73;70.02
21109;BME280;10712;52.944;9.098;2023-12-20T12:19:46;100667.47;;;14.87;69.76
21109;BME280;10712;52.944;9.098;2023-12-20T12:22:14;100673.56;;;14.78;70.11
21109;BME280;10712;52.944;9.098;2023-12-20T12:24:43;100666.78;;;14.85;69.98
21109;BME280;10712;52.944;9.098;2023-12-20T12:27:10;100652.03;;;14.91;69.99
21109;BME280;10712;52.944;9.098;2023-12-20T12:29:37;100662.84;;;14.78;70.40
21109;BME280;10712;52.944;9.098;2023-12-20T12:32:07;100656.00;;;14.74;70.41
21109;BME280;10712;52.944;9.098;2023-12-20T12:34:36;100649.72;;;14.86;70.23
21109;BME280;10712;52.944;9.098;2023-12-20T12:37:04;100655.81;;;15.00;69.81
21109;BME280;10712;52.944;9.098;2023-12-20T12:39:30;100658.25;;;14.91;69.99
21109;BME280;10712;52.944;9.098;2023-12-20T12:41:56;100647.25;;;14.94;70.14
21109;BME280;10712;52.944;9.098;2023-12-20T12:44:23;100650.69;;;14.96;70.29
21109;BME280;10712;52.944;9.098;2023-12-20T12:46:52;100661.06;;;15.12;69.86
21109;BME280;10712;52.944;9.098;2023-12-20T12:49:22;100651.44;;;15.10;69.94
21109;BME280;10712;52.944;9.098;2023-12-20T12:51:48;100655.56;;;15.03;70.36
21109;BME280;10712;52.944;9.098;2023-12-20T12:54:13;100655.56;;;15.03;70.07
21109;BME280;10712;52.944;9.098;2023-12-20T12:56:42;100662.66;;;15.04;69.83